sensor_id;sensor_type;location;lat;lon;timestamp;pressure;altitude;pressure_sealevel;temperature;humidity
12676;BME280;63820;65.654;21.944;2023-05-11T00:02:05;101345.78;;;2.05;100.00
12676;BME280;63820;65.654;21.944;2023-05-11T00:04:50;101351.69;;;1.93;100.00
12676;BME280;63820;65.654;21.944;2023-05-11T00:07:34;101342.22;;;1.83;100.00
12676;BME280;63820;65.654;21.944;2023-05-11T00:10:18;101352.44;;;1.75;100.00
12676;BME280;63820;65.654;21.944;2023-05-11T00:13:03;101360.09;;;1.69;100.00
12676;BME280;63820;65.654;21.944;2023-05-11T00:15:47;101366.91;;;1.66;100.00
12676;BME280;63820;65.654;21.944;2023-05-11T00:18:31;101359.13;;;1.55;100.00
12676;BME280;63820;65.654;21.944;2023-05-11T00:21:15;101359.03;;;1.46;100.00
12676;BME280;63820;65.654;21.944;2023-05-11T00:24:00;101361.63;;;1.49;100.00
12676;BME280;63820;65.654;21.944;2023-05-11T00:26:44;101371.84;;;1.43;100.00
12676;BME280;63820;65.654;21.944;2023-05-11T00:29:28;101382.06;;;1.41;100.00
12676;BME280;63820;65.654;21.944;2023-05-11T00:32:11;101384.66;;;1.43;100.00
12676;BME280;63820;65.654;21.944;2023-05-11T00:34:55;101383.03;;;1.51;100.00
12676;BME280;63820;65.654;21.944;2023-05-11T00:37:40;101371.00;;;1.44;100.00
12676;BME280;63820;65.654;21.944;2023-05-11T00:40:24;101383.78;;;1.42;100.00
12676;BME280;63820;65.654;21.944;2023-05-11T00:43:08;101387.22;;;1.44;100.00
12676;BME280;63820;65.654;21.944;2023-05-11T00:45:53;101384.72;;;1.50;100.00
12676;BME280;63820;65.654;21.944;2023-05-11T00:48:37;101389.88;;;1.53;100.00
12676;BME280;63820;65.654;21.944;2023-05-11T00:51:21;101389.03;;;1.53;100.00
12676;BME280;63820;65.654;21.944;2023-05-11T00:54:05;101391.75;;;1.76;100.00
12676;BME280;63820;65.654;21.944;2023-05-11T00:56:56;101383.19;;;1.72;100.00
12676;BME280;63820;65.654;21.944;2023-05-11T00:59:40;101382.31;;;1.70;100.00
12676;BME280;63820;65.654;21.944;2023-05-11T01:02:24;101392.63;;;1.78;100.00
12676;BME280;63820;65.654;21.944;2023-05-11T01:05:08;101386.63;;;1.74;100.00
12676;BME280;63820;65.654;21.944;2023-05-11T01:08:05;101393.38;;;1.63;100.00
12676;BME280;63820;65.654;21.944;2023-05-11T01:11:27;101393.25;;;1.48;100.00
12676;BME280;63820;65.654;21.944;2023-05-11T01:17:13;101388.03;;;1.39;100.00
12676;BME280;63820;65.654;21.944;2023-05-11T01:20:10;101382.00;;;1.32;100.00
12676;BME280;63820;65.654;21.944;2023-05-11T01:29:09;101391.31;;;1.24;100.00
12676;BME280;63820;65.654;21.944;2023-05-11T01:31:57;101390.50;;;1.28;100.00
12676;BME280;63820;65.654;21.944;2023-05-11T01:34:43;101387.06;;;1.27;100.00
12676;BME280;63820;65.654;21.944;2023-05-11T01:37:30;101384.56;;;1.34;100.00
12676;BME280;63820;65.654;21.944;2023-05-11T01:40:17;101393.06;;;1.29;100.00
12676;BME280;63820;65.654;21.944;2023-05-11T01:43:07;101397.31;;;1.24;100.00
12676;BME280;63820;65.654;21.944;2023-05-11T01:45:54;101403.31;;;1.26;100.00
12676;BME280;63820;65.654;21.944;2023-05-11T01:48:45;101404.09;;;1.19;100.00
12676;BME280;63820;65.654;21.944;2023-05-11T01:51:33;101398.09;;;1.17;100.00
12676;BME280;63820;65.654;21.944;2023-05-11T01:54:20;101390.34;;;1.11;100.00
12676;BME280;63820;65.654;21.944;2023-05-11T01:57:05;101387.78;;;1.13;100.00
12676;BME280;63820;65.654;21.944;2023-05-11T01:59:51;101392.97;;;1.19;100.00
12676;BME280;63820;65.654;21.944;2023-05-11T02:02:36;101389.59;;;1.21;100.00
12676;BME280;63820;65.654;21.944;2023-05-11T02:05:22;101395.50;;;1.16;100.00
12676;BME280;63820;65.654;21.944;2023-05-11T02:08:07;101394.72;;;1.21;100.00
12676;BME280;63820;65.654;21.944;2023-05-11T02:10:53;101396.41;;;1.19;100.00
12676;BME280;63820;65.654;21.944;2023-05-11T02:13:40;101392.94;;;1.16;100.00
12676;BME280;63820;65.654;21.944;2023-05-11T02:16:25;101378.47;;;1.19;100.00
12676;BME280;63820;65.654;21.944;2023-05-11T02:19:13;101392.22;;;1.27;100.00
12676;BME280;63820;65.654;21.944;2023-05-11T02:21:58;101387.94;;;1.29;100.00
12676;BME280;63820;65.654;21.944;2023-05-11T02:24:43;101398.22;;;1.31;100.00
12676;BME280;63820;65.654;21.944;2023-05-11T02:27:29;101399.09;;;1.35;100.00
12676;BME280;63820;65.654;21.944;2023-05-11T02:30:15;101403.38;;;1.36;100.00
12676;BME280;63820;65.654;21.944;2023-05-11T02:33:04;101396.59;;;1.41;100.00
12676;BME280;63820;65.654;21.944;2023-05-11T02:35:50;101397.50;;;1.46;100.00
12676;BME280;63820;65.654;21.944;2023-05-11T02:38:37;101395.84;;;1.52;100.00
12676;BME280;63820;65.654;21.944;2023-05-11T02:41:25;101403.59;;;1.58;100.00
12676;BME280;63820;65.654;21.944;2023-05-11T02:44:13;101410.47;;;1.64;100.00
12676;BME280;63820;65.654;21.944;2023-05-11T02:47:01;101395.16;;;1.72;100.00
12676;BME280;63820;65.654;21.944;2023-05-11T02:49:48;101405.44;;;1.73;100.00
12676;BME280;63820;65.654;21.944;2023-05-11T02:52:42;101407.22;;;1.85;100.00
12676;BME280;63820;65.654;21.944;2023-05-11T02:55:28;101400.63;;;2.28;100.00
12676;BME280;63820;65.654;21.944;2023-05-11T02:58:13;101407.56;;;2.44;100.00
12676;BME280;63820;65.654;21.944;2023-05-11T03:00:58;101399.06;;;2.51;100.00
12676;BME280;63820;65.654;21.944;2023-05-11T03:03:43;101393.09;;;2.61;100.00
12676;BME280;63820;65.654;21.944;2023-05-11T03:06:27;101394.00;;;2.73;100.00
12676;BME280;63820;65.654;21.944;2023-05-11T03:09:11;101399.22;;;2.97;100.00
12676;BME280;63820;65.654;21.944;2023-05-11T03:11:56;101407.81;;;3.07;100.00
12676;BME280;63820;65.654;21.944;2023-05-11T03:14:41;101400.09;;;3.05;100.00
12676;BME280;63820;65.654;21.944;2023-05-11T03:17:27;101401.81;;;3.18;100.00
12676;BME280;63820;65.654;21.944;2023-05-11T03:20:12;101396.72;;;3.37;100.00
12676;BME280;63820;65.654;21.944;2023-05-11T03:22:59;101401.88;;;3.73;100.00
12676;BME280;63820;65.654;21.944;2023-05-11T03:25:44;101394.91;;;4.28;100.00
12676;BME280;63820;65.654;21.944;2023-05-11T03:28:29;101389.69;;;4.44;100.00
12676;BME280;63820;65.654;21.944;2023-05-11T03:31:13;101397.22;;;4.94;100.00
12676;BME280;63820;65.654;21.944;2023-05-11T03:33:57;101399.41;;;5.52;100.00
12676;BME280;63820;65.654;21.944;2023-05-11T03:36:44;101398.94;;;6.08;100.00
12676;BME280;63820;65.654;21.944;2023-05-11T03:39:32;101409.69;;;7.16;100.00
12676;BME280;63820;65.654;21.944;2023-05-11T03:42:16;101411.44;;;8.65;100.00
12676;BME280;63820;65.654;21.944;2023-05-11T03:45:01;101404.09;;;9.95;100.00
12676;BME280;63820;65.654;21.944;2023-05-11T03:47:47;101413.50;;;10.64;96.86
12676;BME280;63820;65.654;21.944;2023-05-11T03:50:33;101413.00;;;11.92;84.06
12676;BME280;63820;65.654;21.944;2023-05-11T03:53:17;101418.84;;;13.19;76.25
12676;BME280;63820;65.654;21.944;2023-05-11T03:56:03;101415.94;;;14.51;65.28
12676;BME280;63820;65.654;21.944;2023-05-11T03:58:47;101433.19;;;15.49;60.43
12676;BME280;63820;65.654;21.944;2023-05-11T04:01:32;101417.09;;;16.59;55.15
12676;BME280;63820;65.654;21.944;2023-05-11T04:04:16;101426.81;;;17.53;51.39
12676;BME280;63820;65.654;21.944;2023-05-11T04:07:00;101428.47;;;18.29;48.04
12676;BME280;63820;65.654;21.944;2023-05-11T04:09:44;101434.59;;;18.30;47.26
12676;BME280;63820;65.654;21.944;2023-05-11T04:12:29;101431.06;;;16.92;48.16
12676;BME280;63820;65.654;21.944;2023-05-11T04:15:13;101428.56;;;15.18;51.67
12676;BME280;63820;65.654;21.944;2023-05-11T04:17:57;101430.41;;;13.35;55.92
12676;BME280;63820;65.654;21.944;2023-05-11T04:20:41;101438.69;;;11.78;62.19
12676;BME280;63820;65.654;21.944;2023-05-11T04:23:25;101431.44;;;10.74;73.01
12676;BME280;63820;65.654;21.944;2023-05-11T04:26:09;101432.75;;;10.27;85.40
12676;BME280;63820;65.654;21.944;2023-05-11T04:28:53;101434.72;;;9.46;100.00
12676;BME280;63820;65.654;21.944;2023-05-11T04:31:37;101431.66;;;9.31;100.00
12676;BME280;63820;65.654;21.944;2023-05-11T04:34:21;101435.63;;;9.45;100.00
12676;BME280;63820;65.654;21.944;2023-05-11T04:37:06;101445.84;;;9.16;100.00
12676;BME280;63820;65.654;21.944;2023-05-11T04:39:50;101433.66;;;8.33;100.00
12676;BME280;63820;65.654;21.944;2023-05-11T04:42:34;101444.88;;;8.35;100.00
12676;BME280;63820;65.654;21.944;2023-05-11T04:45:18;101441.09;;;8.51;100.00
12676;BME280;63820;65.654;21.944;2023-05-11T04:48:02;101443.72;;;8.50;100.00
12676;BME280;63820;65.654;21.944;2023-05-11T04:50:47;101439.16;;;8.63;100.00
12676;BME280;63820;65.654;21.944;2023-05-11T04:53:31;101439.75;;;8.77;100.00
12676;BME280;63820;65.654;21.944;2023-05-11T04:56:15;101436.25;;;8.78;100.00
12676;BME280;63820;65.654;21.944;2023-05-11T04:58:59;101438.28;;;8.64;100.00
12676;BME280;63820;65.654;21.944;2023-05-11T05:01:43;101441.16;;;8.48;100.00
12676;BME280;63820;65.654;21.944;2023-05-11T05:04:27;101443.72;;;8.50;100.00
12676;BME280;63820;65.654;21.944;2023-05-11T05:07:12;101436.06;;;8.44;100.00
12676;BME280;63820;65.654;21.944;2023-05-11T05:09:56;101445.03;;;8.26;100.00
12676;BME280;63820;65.654;21.944;2023-05-11T05:12:40;101451.81;;;8.33;100.00
12676;BME280;63820;65.654;21.944;2023-05-11T05:15:24;101450.63;;;8.51;100.00
12676;BME280;63820;65.654;21.944;2023-05-11T05:18:09;101449.66;;;8.57;100.00
12676;BME280;63820;65.654;21.944;2023-05-11T05:20:53;101447.84;;;9.03;100.00
12676;BME280;63820;65.654;21.944;2023-05-11T05:23:36;101457.97;;;9.52;100.00
12676;BME280;63820;65.654;21.944;2023-05-11T05:26:21;101443.25;;;10.24;100.00
12676;BME280;63820;65.654;21.944;2023-05-11T05:29:05;101453.53;;;12.27;93.66
12676;BME280;63820;65.654;21.944;2023-05-11T05:31:50;101448.75;;;14.97;72.64
12676;BME280;63820;65.654;21.944;2023-05-11T05:34:33;101447.91;;;18.71;57.49
12676;BME280;63820;65.654;21.944;2023-05-11T05:37:18;101449.50;;;20.73;46.59
12676;BME280;63820;65.654;21.944;2023-05-11T05:40:03;101453.56;;;23.77;41.56
12676;BME280;63820;65.654;21.944;2023-05-11T05:42:48;101455.38;;;25.50;35.79
12676;BME280;63820;65.654;21.944;2023-05-11T05:45:32;101462.22;;;27.31;32.87
12676;BME280;63820;65.654;21.944;2023-05-11T05:48:16;101463.13;;;27.67;32.70
12676;BME280;63820;65.654;21.944;2023-05-11T05:51:00;101465.94;;;28.27;30.53
12676;BME280;63820;65.654;21.944;2023-05-11T05:53:44;101461.81;;;25.47;32.98
12676;BME280;63820;65.654;21.944;2023-05-11T05:56:29;101465.34;;;28.93;30.36
12676;BME280;63820;65.654;21.944;2023-05-11T05:59:14;101466.84;;;29.46;28.28
12676;BME280;63820;65.654;21.944;2023-05-11T06:01:58;101465.75;;;29.30;27.92
12676;BME280;63820;65.654;21.944;2023-05-11T06:04:42;101472.09;;;30.84;27.01
12676;BME280;63820;65.654;21.944;2023-05-11T06:07:26;101472.59;;;31.95;24.79
12676;BME280;63820;65.654;21.944;2023-05-11T06:10:10;101473.91;;;31.99;25.24
12676;BME280;63820;65.654;21.944;2023-05-11T06:12:54;101478.78;;;34.63;22.87
12676;BME280;63820;65.654;21.944;2023-05-11T06:15:38;101470.09;;;33.05;23.94
12676;BME280;63820;65.654;21.944;2023-05-11T06:18:22;101467.09;;;31.43;24.57
12676;BME280;63820;65.654;21.944;2023-05-11T06:21:06;101466.38;;;31.95;24.22
12676;BME280;63820;65.654;21.944;2023-05-11T06:23:51;101470.97;;;33.48;23.57
12676;BME280;63820;65.654;21.944;2023-05-11T06:26:35;101473.91;;;31.53;24.42
12676;BME280;63820;65.654;21.944;2023-05-11T06:29:19;101466.47;;;31.33;23.68
12676;BME280;63820;65.654;21.944;2023-05-11T06:32:04;101471.97;;;31.39;24.25
12676;BME280;63820;65.654;21.944;2023-05-11T06:34:49;101478.25;;;31.32;23.02
12676;BME280;63820;65.654;21.944;2023-05-11T06:37:33;101478.31;;;34.87;21.42
12676;BME280;63820;65.654;21.944;2023-05-11T06:40:18;101493.41;;;35.16;21.18
12676;BME280;63820;65.654;21.944;2023-05-11T06:43:02;101485.72;;;33.67;22.12
12676;BME280;63820;65.654;21.944;2023-05-11T06:45:46;101483.41;;;34.34;21.93
12676;BME280;63820;65.654;21.944;2023-05-11T06:48:30;101478.06;;;33.13;23.04
12676;BME280;63820;65.654;21.944;2023-05-11T06:51:14;101482.19;;;34.78;21.59
12676;BME280;63820;65.654;21.944;2023-05-11T06:53:59;101489.00;;;35.83;20.77
12676;BME280;63820;65.654;21.944;2023-05-11T06:56:43;101482.59;;;34.13;21.36
12676;BME280;63820;65.654;21.944;2023-05-11T06:59:29;101484.34;;;35.50;21.27
12676;BME280;63820;65.654;21.944;2023-05-11T07:02:13;101486.66;;;34.92;21.41
12676;BME280;63820;65.654;21.944;2023-05-11T07:04:57;101492.75;;;35.01;20.86
12676;BME280;63820;65.654;21.944;2023-05-11T07:07:41;101498.94;;;37.26;19.16
12676;BME280;63820;65.654;21.944;2023-05-11T07:10:25;101491.44;;;33.78;21.03
12676;BME280;63820;65.654;21.944;2023-05-11T07:13:09;101491.34;;;34.42;21.22
12676;BME280;63820;65.654;21.944;2023-05-11T07:15:54;101501.66;;;38.93;18.26
12676;BME280;63820;65.654;21.944;2023-05-11T07:18:38;101495.28;;;38.02;18.23
12676;BME280;63820;65.654;21.944;2023-05-11T07:21:23;101491.28;;;36.12;19.17
12676;BME280;63820;65.654;21.944;2023-05-11T07:24:07;101497.81;;;39.49;17.32
12676;BME280;63820;65.654;21.944;2023-05-11T07:26:51;101499.84;;;41.85;15.98
12676;BME280;63820;65.654;21.944;2023-05-11T07:29:36;101502.78;;;42.94;15.18
12676;BME280;63820;65.654;21.944;2023-05-11T07:32:20;101503.13;;;38.16;17.26
12676;BME280;63820;65.654;21.944;2023-05-11T07:35:04;101495.41;;;37.19;18.32
12676;BME280;63820;65.654;21.944;2023-05-11T07:37:49;101501.59;;;39.48;17.09
12676;BME280;63820;65.654;21.944;2023-05-11T07:40:34;101499.94;;;38.63;17.73
12676;BME280;63820;65.654;21.944;2023-05-11T07:43:18;101509.34;;;41.48;16.90
12676;BME280;63820;65.654;21.944;2023-05-11T07:46:02;101513.81;;;40.46;16.54
12676;BME280;63820;65.654;21.944;2023-05-11T07:48:46;101518.97;;;42.95;15.57
12676;BME280;63820;65.654;21.944;2023-05-11T07:51:30;101515.94;;;40.09;15.68
12676;BME280;63820;65.654;21.944;2023-05-11T07:54:15;101507.19;;;37.76;17.62
12676;BME280;63820;65.654;21.944;2023-05-11T07:56:59;101507.31;;;39.29;16.78
12676;BME280;63820;65.654;21.944;2023-05-11T07:59:44;101499.84;;;36.35;18.48
12676;BME280;63820;65.654;21.944;2023-05-11T08:02:28;101503.75;;;40.87;15.69
12676;BME280;63820;65.654;21.944;2023-05-11T08:05:12;101510.63;;;41.91;14.61
12676;BME280;63820;65.654;21.944;2023-05-11T08:07:56;101509.47;;;43.25;13.52
12676;BME280;63820;65.654;21.944;2023-05-11T08:10:41;101512.22;;;43.57;13.73
12676;BME280;63820;65.654;21.944;2023-05-11T08:13:25;101505.00;;;43.46;13.27
12676;BME280;63820;65.654;21.944;2023-05-11T08:16:10;101508.69;;;43.93;13.27
12676;BME280;63820;65.654;21.944;2023-05-11T08:18:54;101497.72;;;38.10;15.14
12676;BME280;63820;65.654;21.944;2023-05-11T08:21:38;101500.28;;;41.31;14.45
12676;BME280;63820;65.654;21.944;2023-05-11T08:24:23;101503.28;;;42.69;13.45
12676;BME280;63820;65.654;21.944;2023-05-11T08:27:07;101508.31;;;41.09;14.29
12676;BME280;63820;65.654;21.944;2023-05-11T08:29:51;101498.25;;;38.43;15.47
12676;BME280;63820;65.654;21.944;2023-05-11T08:32:35;101491.69;;;39.89;15.45
12676;BME280;63820;65.654;21.944;2023-05-11T08:35:19;101491.88;;;37.50;15.94
12676;BME280;63820;65.654;21.944;2023-05-11T08:38:04;101476.75;;;33.45;18.61
12676;BME280;63820;65.654;21.944;2023-05-11T08:40:50;101481.78;;;35.29;17.33
12676;BME280;63820;65.654;21.944;2023-05-11T08:43:34;101478.56;;;36.19;16.57
12676;BME280;63820;65.654;21.944;2023-05-11T08:46:20;101487.63;;;38.17;15.59
12676;BME280;63820;65.654;21.944;2023-05-11T08:49:07;101486.06;;;39.19;15.31
12676;BME280;63820;65.654;21.944;2023-05-11T08:51:52;101479.69;;;39.25;14.82
12676;BME280;63820;65.654;21.944;2023-05-11T08:54:36;101492.19;;;40.56;13.65
12676;BME280;63820;65.654;21.944;2023-05-11T08:57:21;101490.00;;;41.10;14.05
12676;BME280;63820;65.654;21.944;2023-05-11T09:00:08;101473.81;;;34.66;16.82
12676;BME280;63820;65.654;21.944;2023-05-11T09:02:53;101482.72;;;36.22;17.77
12676;BME280;63820;65.654;21.944;2023-05-11T09:05:38;101485.41;;;38.69;15.74
12676;BME280;63820;65.654;21.944;2023-05-11T09:08:26;101493.16;;;40.50;14.22
12676;BME280;63820;65.654;21.944;2023-05-11T09:11:14;101481.53;;;39.96;14.06
12676;BME280;63820;65.654;21.944;2023-05-11T09:13:58;101479.59;;;38.65;15.80
12676;BME280;63820;65.654;21.944;2023-05-11T09:16:42;101494.88;;;40.68;14.58
12676;BME280;63820;65.654;21.944;2023-05-11T09:19:28;101485.56;;;38.74;15.10
12676;BME280;63820;65.654;21.944;2023-05-11T09:22:12;101477.00;;;37.27;15.65
12676;BME280;63820;65.654;21.944;2023-05-11T09:24:57;101479.81;;;36.23;16.37
12676;BME280;63820;65.654;21.944;2023-05-11T09:27:42;101482.56;;;39.83;14.18
12676;BME280;63820;65.654;21.944;2023-05-11T09:30:27;101478.09;;;35.43;17.83
12676;BME280;63820;65.654;21.944;2023-05-11T09:33:20;101468.75;;;34.22;18.20
12676;BME280;63820;65.654;21.944;2023-05-11T09:36:05;101472.72;;;35.69;17.12
12676;BME280;63820;65.654;21.944;2023-05-11T09:38:50;101474.31;;;36.63;16.40
12676;BME280;63820;65.654;21.944;2023-05-11T09:41:34;101471.88;;;38.80;15.78
12676;BME280;63820;65.654;21.944;2023-05-11T09:44:18;101471.69;;;36.23;17.24
12676;BME280;63820;65.654;21.944;2023-05-11T09:47:22;101472.00;;;37.24;16.41
12676;BME280;63820;65.654;21.944;2023-05-11T09:50:16;101460.09;;;35.16;17.59
12676;BME280;63820;65.654;21.944;2023-05-11T09:53:00;101463.81;;;37.56;15.85
12676;BME280;63820;65.654;21.944;2023-05-11T09:55:50;101464.59;;;32.98;18.90
12676;BME280;63820;65.654;21.944;2023-05-11T10:01:31;101456.78;;;33.82;18.70
12676;BME280;63820;65.654;21.944;2023-05-11T10:04:15;101459.13;;;34.48;18.52
12676;BME280;63820;65.654;21.944;2023-05-11T10:06:59;101469.72;;;36.57;16.36
12676;BME280;63820;65.654;21.944;2023-05-11T10:09:44;101461.25;;;32.96;19.30
12676;BME280;63820;65.654;21.944;2023-05-11T10:12:28;101450.75;;;34.08;18.40
12676;BME280;63820;65.654;21.944;2023-05-11T10:15:15;101445.16;;;33.82;18.77
12676;BME280;63820;65.654;21.944;2023-05-11T10:18:01;101440.22;;;32.18;19.95
12676;BME280;63820;65.654;21.944;2023-05-11T10:20:46;101455.88;;;32.96;19.22
12676;BME280;63820;65.654;21.944;2023-05-11T10:23:30;101443.00;;;32.10;19.75
12676;BME280;63820;65.654;21.944;2023-05-11T10:26:16;101443.00;;;31.72;19.84
12676;BME280;63820;65.654;21.944;2023-05-11T10:29:01;101442.94;;;35.83;17.24
12676;BME280;63820;65.654;21.944;2023-05-11T10:31:46;101438.94;;;32.73;18.66
12676;BME280;63820;65.654;21.944;2023-05-11T10:34:31;101431.31;;;29.60;21.39
12676;BME280;63820;65.654;21.944;2023-05-11T10:37:17;101431.91;;;31.44;20.50
12676;BME280;63820;65.654;21.944;2023-05-11T10:40:01;101429.03;;;33.09;20.02
12676;BME280;63820;65.654;21.944;2023-05-11T10:49:41;101433.22;;;33.97;18.72
12676;BME280;63820;65.654;21.944;2023-05-11T10:55:50;101420.69;;;30.23;20.90
12676;BME280;63820;65.654;21.944;2023-05-11T11:01:49;101425.94;;;31.57;21.44
12676;BME280;63820;65.654;21.944;2023-05-11T11:04:50;101423.81;;;31.75;19.57
12676;BME280;63820;65.654;21.944;2023-05-11T11:08:07;101422.13;;;31.74;19.73
12676;BME280;63820;65.654;21.944;2023-05-11T11:10:52;101411.09;;;30.37;22.20
12676;BME280;63820;65.654;21.944;2023-05-11T11:14:09;101416.47;;;29.32;22.75
12676;BME280;63820;65.654;21.944;2023-05-11T11:20:01;101422.06;;;31.37;21.21
12676;BME280;63820;65.654;21.944;2023-05-11T11:22:47;101413.69;;;29.82;22.85
12676;BME280;63820;65.654;21.944;2023-05-11T11:25:51;101413.00;;;28.47;23.45
12676;BME280;63820;65.654;21.944;2023-05-11T11:31:43;101419.22;;;29.97;22.69
12676;BME280;63820;65.654;21.944;2023-05-11T11:37:12;101403.56;;;26.57;26.37
12676;BME280;63820;65.654;21.944;2023-05-11T11:39:57;101408.13;;;27.19;25.35
12676;BME280;63820;65.654;21.944;2023-05-11T11:42:44;101400.63;;;27.05;25.44
12676;BME280;63820;65.654;21.944;2023-05-11T11:45:30;101402.41;;;26.13;26.43
12676;BME280;63820;65.654;21.944;2023-05-11T11:48:20;101388.97;;;26.51;26.07
12676;BME280;63820;65.654;21.944;2023-05-11T11:51:05;101398.06;;;26.12;26.81
12676;BME280;63820;65.654;21.944;2023-05-11T11:56:38;101386.03;;;25.11;28.32
12676;BME280;63820;65.654;21.944;2023-05-11T11:59:22;101395.25;;;24.57;29.40
12676;BME280;63820;65.654;21.944;2023-05-11T12:02:07;101392.13;;;24.83;28.73
12676;BME280;63820;65.654;21.944;2023-05-11T12:04:56;101395.06;;;23.56;29.91
12676;BME280;63820;65.654;21.944;2023-05-11T12:07:42;101392.34;;;23.35;29.93
12676;BME280;63820;65.654;21.944;2023-05-11T12:10:27;101390.81;;;23.22;30.80
12676;BME280;63820;65.654;21.944;2023-05-11T12:13:11;101388.19;;;24.77;28.77
12676;BME280;63820;65.654;21.944;2023-05-11T12:16:16;101399.00;;;24.45;28.95
12676;BME280;63820;65.654;21.944;2023-05-11T12:19:01;101387.53;;;24.03;29.70
12676;BME280;63820;65.654;21.944;2023-05-11T12:21:47;101391.50;;;24.60;29.43
12676;BME280;63820;65.654;21.944;2023-05-11T12:24:31;101390.81;;;25.17;28.27
12676;BME280;63820;65.654;21.944;2023-05-11T12:27:16;101394.63;;;25.53;28.71
12676;BME280;63820;65.654;21.944;2023-05-11T12:30:02;101388.03;;;25.48;28.17
12676;BME280;63820;65.654;21.944;2023-05-11T12:32:46;101379.59;;;25.14;29.49
12676;BME280;63820;65.654;21.944;2023-05-11T12:35:32;101382.16;;;24.35;30.17
12676;BME280;63820;65.654;21.944;2023-05-11T12:38:17;101395.16;;;25.28;29.66
12676;BME280;63820;65.654;21.944;2023-05-11T12:41:01;101395.88;;;25.49;28.67
12676;BME280;63820;65.654;21.944;2023-05-11T12:43:51;101392.22;;;25.89;28.75
12676;BME280;63820;65.654;21.944;2023-05-11T12:46:36;101398.47;;;26.17;28.54
12676;BME280;63820;65.654;21.944;2023-05-11T12:49:24;101395.59;;;25.62;28.90
12676;BME280;63820;65.654;21.944;2023-05-11T12:52:12;101397.84;;;25.57;29.40
12676;BME280;63820;65.654;21.944;2023-05-11T12:54:56;101393.38;;;25.67;30.55
12676;BME280;63820;65.654;21.944;2023-05-11T12:57:43;101402.50;;;25.74;29.84
12676;BME280;63820;65.654;21.944;2023-05-11T13:00:27;101405.59;;;25.79;30.00
12676;BME280;63820;65.654;21.944;2023-05-11T13:03:11;101394.09;;;25.69;30.17
12676;BME280;63820;65.654;21.944;2023-05-11T13:06:12;101386.19;;;24.29;31.87
12676;BME280;63820;65.654;21.944;2023-05-11T13:08:56;101394.47;;;23.94;33.12
12676;BME280;63820;65.654;21.944;2023-05-11T13:11:41;101389.41;;;24.33;32.81
12676;BME280;63820;65.654;21.944;2023-05-11T13:14:29;101398.16;;;24.03;33.16
12676;BME280;63820;65.654;21.944;2023-05-11T13:17:28;101405.03;;;24.05;33.07
12676;BME280;63820;65.654;21.944;2023-05-11T13:23:07;101383.56;;;21.90;35.56
12676;BME280;63820;65.654;21.944;2023-05-11T13:25:52;101391.75;;;22.44;35.68
12676;BME280;63820;65.654;21.944;2023-05-11T13:28:37;101403.94;;;22.00;35.84
12676;BME280;63820;65.654;21.944;2023-05-11T13:31:21;101397.69;;;22.01;36.44
12676;BME280;63820;65.654;21.944;2023-05-11T13:34:05;101398.59;;;21.67;36.61
12676;BME280;63820;65.654;21.944;2023-05-11T13:36:48;101395.63;;;21.82;37.24
12676;BME280;63820;65.654;21.944;2023-05-11T13:39:33;101385.84;;;21.72;37.20
12676;BME280;63820;65.654;21.944;2023-05-11T13:42:17;101386.56;;;21.85;37.20
12676;BME280;63820;65.654;21.944;2023-05-11T13:45:01;101395.63;;;21.94;36.57
12676;BME280;63820;65.654;21.944;2023-05-11T13:47:45;101394.94;;;21.33;37.21
12676;BME280;63820;65.654;21.944;2023-05-11T13:50:30;101389.22;;;20.89;38.11
12676;BME280;63820;65.654;21.944;2023-05-11T13:53:14;101387.97;;;21.19;38.02
12676;BME280;63820;65.654;21.944;2023-05-11T13:56:00;101387.75;;;20.85;38.96
12676;BME280;63820;65.654;21.944;2023-05-11T13:58:44;101388.50;;;21.24;38.09
12676;BME280;63820;65.654;21.944;2023-05-11T14:01:29;101393.69;;;20.89;39.08
12676;BME280;63820;65.654;21.944;2023-05-11T14:04:13;101387.41;;;21.03;38.71
12676;BME280;63820;65.654;21.944;2023-05-11T14:06:58;101382.13;;;20.15;40.25
12676;BME280;63820;65.654;21.944;2023-05-11T14:09:42;101386.81;;;20.86;38.93
12676;BME280;63820;65.654;21.944;2023-05-11T14:12:27;101387.00;;;20.96;39.19
12676;BME280;63820;65.654;21.944;2023-05-11T14:15:11;101382.69;;;20.82;38.95
12676;BME280;63820;65.654;21.944;2023-05-11T14:17:55;101381.66;;;21.09;39.72
12676;BME280;63820;65.654;21.944;2023-05-11T14:20:39;101386.88;;;20.98;39.36
12676;BME280;63820;65.654;21.944;2023-05-11T14:23:25;101381.88;;;21.06;39.17
12676;BME280;63820;65.654;21.944;2023-05-11T14:26:10;101381.66;;;21.09;39.43
12676;BME280;63820;65.654;21.944;2023-05-11T14:28:54;101380.91;;;21.07;39.56
12676;BME280;63820;65.654;21.944;2023-05-11T14:31:38;101376.22;;;20.86;39.28
12676;BME280;63820;65.654;21.944;2023-05-11T14:34:23;101381.41;;;20.88;40.23
12676;BME280;63820;65.654;21.944;2023-05-11T14:37:07;101383.53;;;20.46;40.79
12676;BME280;63820;65.654;21.944;2023-05-11T14:39:52;101382.84;;;20.68;40.52
12676;BME280;63820;65.654;21.944;2023-05-11T14:42:36;101384.13;;;20.63;40.53
12676;BME280;63820;65.654;21.944;2023-05-11T14:45:20;101379.38;;;20.30;40.61
12676;BME280;63820;65.654;21.944;2023-05-11T14:48:05;101380.66;;;20.11;41.07
12676;BME280;63820;65.654;21.944;2023-05-11T14:50:49;101381.50;;;20.12;41.35
12676;BME280;63820;65.654;21.944;2023-05-11T14:53:33;101377.56;;;19.92;41.43
12676;BME280;63820;65.654;21.944;2023-05-11T14:56:18;101383.44;;;19.57;41.98